Time;durP1;ratioP1;P1;durP2;ratioP2;P2;SDS_P1;SDS_P2;PMS_P1;PMS_P2;Temp;Humidity;BMP_temperature;BMP_pressure;BME280_temperature;BME280_humidity;BME280_pressure;Samples;Min_cycle;Max_cycle;Signal;HPM_P1;HPM_P2
2021/12/04 00:02:07;;;;;;;51.22;25.27;;;4.30;99.90;;;;;;4988281;28;20054;-77
2021/12/04 00:04:42;;;;;;;47.15;23.45;;;4.30;99.90;;;;;;4965706;28;20087;-76
2021/12/04 00:07:09;;;;;;;49.65;25.55;;;4.30;99.90;;;;;;4981876;28;20483;-76
2021/12/04 00:09:35;;;;;;;51.03;26.10;;;4.30;99.90;;;;;;4981398;28;20114;-77
2021/12/04 00:12:03;;;;;;;53.78;26.38;;;4.30;99.90;;;;;;4976568;28;20035;-77
2021/12/04 00:14:33;;;;;;;57.78;27.33;;;4.30;99.90;;;;;;4963088;28;20046;-77
2021/12/04 00:17:00;;;;;;;57.70;25.95;;;4.30;99.90;;;;;;4983172;28;20042;-77
2021/12/04 00:19:27;;;;;;;50.97;25.05;;;4.30;99.90;;;;;;4983521;28;20066;-76
2021/12/04 00:21:54;;;;;;;54.58;26.33;;;4.30;99.90;;;;;;4977417;28;20050;-77
2021/12/04 00:24:20;;;;;;;55.55;26.08;;;4.30;99.90;;;;;;4972509;28;20047;-76
2021/12/04 00:26:47;;;;;;;53.85;26.25;;;4.20;99.90;;;;;;4983743;28;20042;-77
2021/12/04 00:29:13;;;;;;;59.15;27.25;;;4.20;99.90;;;;;;4965546;28;20088;-77
2021/12/04 00:31:45;;;;;;;63.38;26.70;;;4.20;99.90;;;;;;4978608;28;20038;-77
2021/12/04 00:34:10;;;;;;;58.40;26.20;;;4.20;99.90;;;;;;4971947;28;21199;-76
2021/12/04 00:50:07;;;;;;;57.22;25.27;;;4.20;99.90;;;;;;4970926;28;20046;-76
2021/12/04 00:52:33;;;;;;;58.20;25.80;;;4.20;99.90;;;;;;4966192;28;20042;-77
2021/12/04 00:54:59;;;;;;;58.50;25.17;;;4.20;99.90;;;;;;4975837;28;20409;-76
2021/12/04 00:57:24;;;;;;;64.90;27.70;;;4.20;99.90;;;;;;4955520;28;20520;-75
2021/12/04 00:59:50;;;;;;;64.78;26.80;;;4.20;99.90;;;;;;4977418;28;20566;-77
2021/12/04 01:02:18;;;;;;;62.78;26.83;;;4.20;99.90;;;;;;4985079;28;20389;-77
2021/12/04 01:04:44;;;;;;;65.32;27.05;;;4.20;99.90;;;;;;4984092;28;20066;-77
2021/12/04 01:07:10;;;;;;;54.50;24.60;;;4.20;99.90;;;;;;4974084;28;20555;-77
2021/12/04 01:09:36;;;;;;;66.88;27.00;;;4.20;99.90;;;;;;4955221;28;20406;-76
2021/12/04 01:12:03;;;;;;;66.65;26.33;;;4.20;99.90;;;;;;4977687;28;20117;-76
2021/12/04 01:14:31;;;;;;;66.57;27.02;;;4.20;99.90;;;;;;4977468;28;20035;-77
2021/12/04 01:16:57;;;;;;;67.40;25.35;;;4.10;99.90;;;;;;4977468;28;20062;-76
2021/12/04 01:19:23;;;;;;;67.25;28.08;;;4.20;99.90;;;;;;4976372;28;20042;-76
2021/12/04 01:21:50;;;;;;;64.90;24.20;;;4.20;99.90;;;;;;4957846;28;20400;-77
2021/12/04 01:24:16;;;;;;;69.32;26.75;;;4.20;99.90;;;;;;4971864;28;20082;-76
2021/12/04 01:26:42;;;;;;;70.43;26.63;;;4.20;99.90;;;;;;4970976;28;20416;-76
2021/12/04 01:29:07;;;;;;;71.95;26.48;;;4.20;99.90;;;;;;4978443;28;20049;-77
2021/12/04 01:31:33;;;;;;;67.53;25.85;;;4.20;99.90;;;;;;4970997;28;20122;-76
2021/12/04 01:33:59;;;;;;;67.03;26.15;;;4.20;99.90;;;;;;4972705;28;20070;-76
2021/12/04 01:36:24;;;;;;;71.50;27.52;;;4.20;99.90;;;;;;4988539;28;20546;-76
2021/12/04 01:38:51;;;;;;;74.43;26.20;;;4.20;99.90;;;;;;4982655;28;20053;-77
2021/12/04 01:41:17;;;;;;;68.82;24.88;;;4.20;99.90;;;;;;4989932;28;20121;-77
2021/12/04 01:43:43;;;;;;;66.40;25.30;;;4.20;99.90;;;;;;4973399;28;20515;-77
2021/12/04 01:46:09;;;;;;;64.35;24.58;;;4.20;99.90;;;;;;4983507;28;20134;-77
2021/12/04 01:48:34;;;;;;;71.55;25.83;;;4.20;99.90;;;;;;4979138;28;20042;-76
2021/12/04 01:51:00;;;;;;;70.00;25.88;;;4.20;99.90;;;;;;4964545;28;20062;-77
2021/12/04 01:53:26;;;;;;;64.57;25.10;;;4.20;99.90;;;;;;4988498;28;20034;-76
2021/12/04 01:55:54;;;;;;;68.03;26.15;;;4.20;99.90;;;;;;4987229;28;20046;-77
2021/12/04 01:58:22;;;;;;;64.75;25.60;;;4.20;99.90;;;;;;4975647;28;20433;-76
2021/12/04 02:00:48;;;;;;;71.63;25.20;;;4.20;99.90;;;;;;4973082;28;20074;-76
2021/12/04 02:03:14;;;;;;;69.22;26.13;;;4.20;99.90;;;;;;4977800;28;20046;-77
2021/12/04 02:05:43;;;;;;;81.85;25.63;;;4.20;99.90;;;;;;4975955;28;20065;-76
2021/12/04 02:08:12;;;;;;;74.13;26.05;;;4.20;99.90;;;;;;4980500;28;20042;-77
2021/12/04 02:10:38;;;;;;;69.60;25.52;;;4.10;99.90;;;;;;4978885;28;20081;-76
2021/12/04 02:13:04;;;;;;;69.75;25.85;;;4.20;99.90;;;;;;4991021;28;20066;-77
2021/12/04 02:15:30;;;;;;;77.88;25.17;;;4.20;99.90;;;;;;4991079;28;20089;-76
2021/12/04 02:17:56;;;;;;;67.68;24.75;;;4.10;99.90;;;;;;4980485;28;20126;-77
2021/12/04 02:20:25;;;;;;;70.43;25.90;;;4.20;99.90;;;;;;4978194;28;20114;-76
2021/12/04 02:22:51;;;;;;;78.65;26.38;;;4.10;99.90;;;;;;4984466;28;20125;-76
2021/12/04 02:25:17;;;;;;;78.78;25.67;;;4.20;99.90;;;;;;4992935;28;20482;-76
2021/12/04 02:27:44;;;;;;;69.57;26.00;;;4.10;99.90;;;;;;4976978;28;20054;-76
2021/12/04 02:30:13;;;;;;;70.15;24.90;;;4.10;99.90;;;;;;4992875;28;20042;-77
2021/12/04 02:32:40;;;;;;;78.85;24.30;;;4.10;99.90;;;;;;4974525;28;20039;-76
2021/12/04 02:35:08;;;;;;;76.43;25.50;;;4.10;99.90;;;;;;4975500;28;20392;-77
2021/12/04 02:37:35;;;;;;;64.57;23.20;;;4.20;99.90;;;;;;4965254;28;20097;-76
2021/12/04 02:40:03;;;;;;;66.88;24.58;;;4.10;99.90;;;;;;4978886;28;20086;-77
2021/12/04 02:42:30;;;;;;;66.20;23.35;;;4.10;99.90;;;;;;4992795;28;20048;-76
2021/12/04 02:45:01;;;;;;;71.10;23.58;;;4.10;99.90;;;;;;4992642;28;20043;-76
2021/12/04 02:47:28;;;;;;;74.07;24.00;;;4.20;99.90;;;;;;4988628;28;20130;-77
2021/12/04 02:49:55;;;;;;;61.45;21.15;;;4.10;99.90;;;;;;4983004;28;20508;-76
2021/12/04 02:52:22;;;;;;;76.68;24.10;;;4.10;99.90;;;;;;4973376;28;20150;-76
2021/12/04 02:54:48;;;;;;;68.35;22.95;;;4.10;99.90;;;;;;4975250;28;20149;-76
2021/12/04 02:57:16;;;;;;;74.57;23.90;;;4.10;99.90;;;;;;4973562;28;20043;-76
2021/12/04 02:59:42;;;;;;;81.55;23.73;;;4.10;99.90;;;;;;4980236;28;20532;-76
2021/12/04 03:02:20;;;;;;;68.47;24.10;;;4.10;99.90;;;;;;4972686;28;20050;-76
2021/12/04 03:04:57;;;;;;;60.25;21.58;;;4.20;99.90;;;;;;4981124;28;20046;-76
2021/12/04 03:07:23;;;;;;;66.63;23.02;;;4.20;99.90;;;;;;4973208;28;20189;-76
2021/12/04 03:09:49;;;;;;;62.35;23.48;;;4.20;99.90;;;;;;4979163;28;20154;-75
2021/12/04 03:12:18;;;;;;;67.32;22.80;;;4.10;99.90;;;;;;4978432;28;20084;-77
2021/12/04 03:14:44;;;;;;;68.65;24.77;;;4.20;99.90;;;;;;4992530;28;20042;-76
2021/12/04 03:17:10;;;;;;;65.00;23.80;;;4.20;99.90;;;;;;4987741;28;20054;-77
2021/12/04 03:19:38;;;;;;;56.97;21.85;;;4.20;99.90;;;;;;4973574;28;20039;-77
2021/12/04 03:22:04;;;;;;;54.58;21.90;;;4.20;99.90;;;;;;4976044;28;20087;-76
2021/12/04 03:24:32;;;;;;;56.78;22.20;;;4.20;99.90;;;;;;4959305;28;20038;-77
2021/12/04 03:26:58;;;;;;;52.83;21.77;;;4.10;99.90;;;;;;4972515;28;20583;-77
2021/12/04 03:29:27;;;;;;;56.67;21.38;;;4.10;99.90;;;;;;4972717;28;20066;-77
2021/12/04 03:32:13;;;;;;;53.63;20.92;;;4.10;99.90;;;;;;4976561;28;20057;-76
2021/12/04 03:40:33;;;;;;;50.63;20.55;;;4.10;99.90;;;;;;4991554;28;20050;-76
2021/12/04 03:42:57;;;;;;;47.72;19.98;;;4.10;99.90;;;;;;4991828;28;20053;-76
2021/12/04 03:45:23;;;;;;;47.80;19.10;;;4.10;99.90;;;;;;4973240;28;20046;-77
2021/12/04 03:47:51;;;;;;;50.17;20.17;;;4.10;99.90;;;;;;4982643;28;20045;-77
2021/12/04 03:50:17;;;;;;;46.13;19.40;;;4.10;99.90;;;;;;4981062;28;20496;-77
2021/12/04 03:52:43;;;;;;;46.30;19.17;;;4.10;99.90;;;;;;4971971;28;20038;-77
2021/12/04 03:55:09;;;;;;;45.63;19.63;;;4.10;99.90;;;;;;4985599;28;20042;-77
2021/12/04 03:57:36;;;;;;;47.15;18.75;;;4.10;99.90;;;;;;4983165;28;20114;-77
2021/12/04 04:00:04;;;;;;;46.05;18.45;;;4.10;99.90;;;;;;4981572;28;20117;-77
2021/12/04 04:02:29;;;;;;;41.15;18.42;;;4.10;99.90;;;;;;4983200;28;20550;-77
2021/12/04 04:04:55;;;;;;;49.22;19.00;;;4.10;99.90;;;;;;5003213;28;20046;-77
2021/12/04 04:07:22;;;;;;;52.45;17.98;;;4.10;99.90;;;;;;4989132;28;20050;-77
2021/12/04 04:09:48;;;;;;;47.15;19.63;;;4.10;99.90;;;;;;4975217;28;20118;-77
2021/12/04 04:12:13;;;;;;;38.75;16.75;;;4.10;99.90;;;;;;4971851;28;20043;-77
2021/12/04 04:14:39;;;;;;;43.03;18.55;;;4.10;99.90;;;;;;4979759;28;20057;-77
2021/12/04 04:17:05;;;;;;;49.25;18.38;;;4.10;99.90;;;;;;4989571;28;20419;-77
2021/12/04 04:19:30;;;;;;;47.15;19.05;;;4.10;99.90;;;;;;4982444;28;20038;-76
2021/12/04 04:21:57;;;;;;;49.70;18.10;;;4.10;99.90;;;;;;4978579;28;20057;-77
2021/12/04 04:24:25;;;;;;;53.40;17.13;;;4.10;99.90;;;;;;4981403;28;20459;-77
2021/12/04 04:26:51;;;;;;;46.00;18.17;;;4.10;99.90;;;;;;4971315;28;20455;-76
2021/12/04 04:29:17;;;;;;;42.85;16.90;;;4.10;99.90;;;;;;4974213;28;20039;-76
2021/12/04 04:31:46;;;;;;;44.33;18.23;;;4.10;99.90;;;;;;4976810;28;20042;-76
2021/12/04 04:34:19;;;;;;;39.67;15.88;;;4.10;99.90;;;;;;4960735;28;20045;-77
2021/12/04 04:36:57;;;;;;;49.13;18.27;;;4.10;99.90;;;;;;4981370;28;20076;-76
2021/12/04 04:58:27;;;;;;;46.25;17.15;;;4.10;99.90;;;;;;4970449;28;20563;-76
2021/12/04 05:14:27;;;;;;;43.78;15.68;;;4.10;99.90;;;;;;4981359;28;20048;-77
2021/12/04 05:17:02;;;;;;;39.50;16.33;;;4.10;99.90;;;;;;4975123;28;20053;-76
2021/12/04 05:20:19;;;;;;;31.73;14.55;;;4.10;99.90;;;;;;4981728;28;20070;-77
2021/12/04 05:22:15;;;;;;;42.08;16.75;;;4.10;99.90;;;;;;4975545;28;20135;-76
2021/12/04 05:24:41;;;;;;;41.83;15.57;;;4.10;99.90;;;;;;4987507;28;20468;-76
2021/12/04 05:27:08;;;;;;;39.47;16.10;;;4.00;99.90;;;;;;4968937;28;20045;-76
2021/12/04 05:29:34;;;;;;;47.47;16.30;;;4.10;99.90;;;;;;4970672;28;20070;-77
2021/12/04 05:32:00;;;;;;;37.20;14.98;;;4.10;99.90;;;;;;4970340;28;20042;-76
2021/12/04 05:34:26;;;;;;;36.97;15.73;;;4.10;99.90;;;;;;4973715;28;20064;-77
2021/12/04 05:36:52;;;;;;;38.63;15.40;;;4.10;99.90;;;;;;4972002;28;20603;-77
2021/12/04 05:39:17;;;;;;;37.78;16.95;;;4.10;99.90;;;;;;4970929;28;20054;-77
2021/12/04 05:41:43;;;;;;;39.40;15.77;;;4.10;99.90;;;;;;4972403;28;20038;-76
2021/12/04 05:44:10;;;;;;;40.83;16.10;;;4.10;99.90;;;;;;4973773;28;20046;-77
2021/12/04 05:46:41;;;;;;;41.80;15.18;;;4.10;99.90;;;;;;4991529;28;20540;-76
2021/12/04 05:49:16;;;;;;;45.50;15.80;;;4.00;99.90;;;;;;4972007;28;20038;-76
2021/12/04 05:56:44;;;;;;;39.35;15.20;;;4.10;99.90;;;;;;4986166;28;20129;-77
2021/12/04 05:59:10;;;;;;;44.70;15.90;;;4.10;99.90;;;;;;4986484;28;20121;-76
2021/12/04 06:01:36;;;;;;;36.17;15.70;;;4.10;99.90;;;;;;4977435;28;20046;-76
2021/12/04 06:04:02;;;;;;;41.67;16.65;;;4.00;99.90;;;;;;4980759;28;20462;-76
2021/12/04 06:06:27;;;;;;;36.72;15.02;;;4.00;99.90;;;;;;4976963;28;20046;-76
2021/12/04 06:08:53;;;;;;;40.63;15.80;;;4.00;99.90;;;;;;4963061;28;20035;-76
2021/12/04 06:11:18;;;;;;;47.63;16.98;;;4.10;99.90;;;;;;4958567;28;20046;-76
2021/12/04 06:13:45;;;;;;;35.85;15.68;;;4.00;99.90;;;;;;4987557;28;20049;-76
2021/12/04 06:16:12;;;;;;;44.38;15.88;;;4.00;99.90;;;;;;4974320;28;20043;-76
2021/12/04 06:18:38;;;;;;;43.08;15.50;;;4.00;99.90;;;;;;4973870;28;20527;-76
2021/12/04 06:23:47;;;;;;;41.63;15.80;;;4.00;99.90;;;;;;4986673;28;20053;-76
2021/12/04 06:26:14;;;;;;;40.60;14.82;;;4.00;99.90;;;;;;4973915;28;20089;-76
2021/12/04 06:28:39;;;;;;;40.92;16.13;;;4.00;99.90;;;;;;4975752;28;20129;-76
2021/12/04 06:31:07;;;;;;;38.13;15.52;;;4.00;99.90;;;;;;4980121;28;20126;-77
2021/12/04 06:33:33;;;;;;;43.47;15.88;;;4.00;99.90;;;;;;4976978;28;20050;-76
2021/12/04 06:36:00;;;;;;;39.55;15.60;;;4.00;99.90;;;;;;4974195;28;20047;-76
2021/12/04 06:38:25;;;;;;;44.15;16.63;;;4.00;99.90;;;;;;4985087;28;20039;-77
2021/12/04 06:40:51;;;;;;;47.78;16.23;;;4.00;99.90;;;;;;4959203;28;20775;-76
2021/12/04 06:43:17;;;;;;;47.78;16.90;;;4.00;99.90;;;;;;4989082;28;20046;-76
2021/12/04 06:45:46;;;;;;;52.20;17.20;;;4.10;99.90;;;;;;4992615;28;20047;-77
2021/12/04 06:48:18;;;;;;;48.65;17.27;;;4.00;99.90;;;;;;4993243;28;20404;-76
2021/12/04 06:50:48;;;;;;;45.42;16.35;;;4.10;99.90;;;;;;4988504;28;20599;-77
2021/12/04 06:53:24;;;;;;;54.55;16.35;;;4.10;99.90;;;;;;4973019;28;20077;-76
2021/12/04 06:55:53;;;;;;;56.20;18.10;;;4.00;99.90;;;;;;4983655;28;20042;-76
2021/12/04 06:58:19;;;;;;;50.03;16.02;;;4.00;99.90;;;;;;4987389;28;20114;-76
2021/12/04 07:00:45;;;;;;;68.60;17.75;;;4.00;99.90;;;;;;4973082;28;20504;-76
2021/12/04 07:03:11;;;;;;;49.00;18.08;;;4.00;99.90;;;;;;4973192;28;20098;-77
2021/12/04 07:05:37;;;;;;;51.88;17.60;;;4.00;99.90;;;;;;4975279;28;20034;-77
2021/12/04 07:08:05;;;;;;;51.10;16.92;;;4.00;99.90;;;;;;4989253;28;20083;-76
2021/12/04 07:10:31;;;;;;;61.78;17.17;;;4.00;99.90;;;;;;4978711;28;20034;-77
2021/12/04 07:12:57;;;;;;;58.28;18.25;;;4.00;99.90;;;;;;4984889;28;20074;-77
2021/12/04 07:15:26;;;;;;;49.88;17.02;;;4.00;99.90;;;;;;4992119;28;20128;-76
2021/12/04 07:17:52;;;;;;;48.28;16.85;;;4.00;99.90;;;;;;4983785;28;20416;-76
2021/12/04 07:20:17;;;;;;;54.42;17.52;;;4.00;99.90;;;;;;4972848;28;20142;-76
2021/12/04 07:22:43;;;;;;;68.25;18.00;;;4.00;99.90;;;;;;4974022;28;20044;-76
2021/12/04 07:25:08;;;;;;;58.20;18.23;;;4.00;99.90;;;;;;4973763;28;20066;-76
2021/12/04 07:27:34;;;;;;;56.40;17.08;;;4.00;99.90;;;;;;4973251;28;20058;-76
2021/12/04 07:30:00;;;;;;;65.20;17.00;;;4.00;99.90;;;;;;4973594;28;20053;-77
2021/12/04 07:32:26;;;;;;;59.55;16.75;;;4.00;99.90;;;;;;4982840;28;20522;-77
2021/12/04 07:34:53;;;;;;;54.20;17.10;;;4.00;99.90;;;;;;4991223;28;20034;-76
2021/12/04 07:37:19;;;;;;;55.35;16.63;;;4.10;99.90;;;;;;4988187;28;20042;-77
2021/12/04 07:39:45;;;;;;;71.55;17.67;;;4.00;99.90;;;;;;4986069;28;20047;-76
2021/12/04 07:42:10;;;;;;;49.95;16.90;;;4.00;99.90;;;;;;4972290;28;20038;-76
2021/12/04 07:44:36;;;;;;;53.70;16.38;;;4.00;99.90;;;;;;4962283;28;20038;-76
2021/12/04 07:47:02;;;;;;;50.35;17.95;;;4.00;99.90;;;;;;4979882;28;20046;-76
2021/12/04 07:49:28;;;;;;;58.83;17.20;;;4.00;99.90;;;;;;4984726;28;20399;-76
2021/12/04 07:51:53;;;;;;;52.90;17.77;;;4.00;99.90;;;;;;4983121;28;20089;-76
2021/12/04 07:54:19;;;;;;;47.88;15.82;;;4.00;99.90;;;;;;4986547;28;20050;-76
2021/12/04 07:56:45;;;;;;;56.90;17.75;;;4.00;99.90;;;;;;4986224;28;20042;-77
2021/12/04 07:59:10;;;;;;;57.63;17.15;;;4.00;99.90;;;;;;4982274;28;20124;-76
2021/12/04 08:01:37;;;;;;;56.83;17.38;;;4.00;99.90;;;;;;4988276;28;20038;-76
2021/12/04 08:04:04;;;;;;;52.17;17.75;;;4.00;99.90;;;;;;4987533;28;20057;-77
2021/12/04 08:06:33;;;;;;;53.53;17.48;;;4.00;99.90;;;;;;4972044;28;20113;-77
2021/12/04 08:08:59;;;;;;;52.63;16.85;;;4.10;99.90;;;;;;4971588;28;20043;-77
2021/12/04 08:11:27;;;;;;;47.55;16.92;;;4.00;99.90;;;;;;4990430;28;20128;-78
2021/12/04 08:13:54;;;;;;;44.92;16.75;;;4.00;99.90;;;;;;4972853;28;20437;-77
2021/12/04 08:16:24;;;;;;;43.88;16.83;;;4.00;99.90;;;;;;4981873;28;20049;-77
2021/12/04 08:18:52;;;;;;;50.15;16.20;;;4.00;99.90;;;;;;4980104;28;20046;-77
2021/12/04 08:21:18;;;;;;;46.45;16.75;;;4.10;99.90;;;;;;5001348;28;20042;-77
2021/12/04 08:23:44;;;;;;;45.08;16.45;;;4.00;99.90;;;;;;4987200;28;20034;-77
2021/12/04 08:26:09;;;;;;;40.90;16.67;;;4.10;99.90;;;;;;4986816;28;20057;-76
2021/12/04 08:28:35;;;;;;;49.83;17.17;;;4.10;99.90;;;;;;4981585;28;20034;-76
2021/12/04 08:31:01;;;;;;;46.17;16.65;;;4.00;99.90;;;;;;4978858;28;20066;-77
2021/12/04 08:33:26;;;;;;;43.08;14.77;;;4.10;99.90;;;;;;4977227;28;20031;-76
2021/12/04 08:35:52;;;;;;;75.78;17.73;;;4.10;99.90;;;;;;4977129;28;20035;-77
2021/12/04 08:38:18;;;;;;;43.53;16.00;;;4.10;99.90;;;;;;4970441;28;20070;-76
2021/12/04 08:40:44;;;;;;;49.63;15.00;;;4.10;99.90;;;;;;4954269;28;20046;-76
2021/12/04 08:43:11;;;;;;;45.53;15.93;;;4.10;99.90;;;;;;4970187;28;20505;-76
2021/12/04 08:45:37;;;;;;;34.15;14.88;;;4.10;99.90;;;;;;4988049;28;20042;-76
2021/12/04 08:48:04;;;;;;;37.70;15.50;;;4.10;99.90;;;;;;4989544;28;20133;-77
2021/12/04 08:50:31;;;;;;;43.28;15.38;;;4.10;99.90;;;;;;4974470;28;20125;-76
2021/12/04 08:53:00;;;;;;;35.65;15.20;;;4.10;99.90;;;;;;4990661;28;20438;-77
2021/12/04 08:55:28;;;;;;;36.22;14.10;;;4.10;99.90;;;;;;4990259;28;20039;-77
2021/12/04 08:57:53;;;;;;;37.22;14.30;;;4.10;99.90;;;;;;4990886;28;20039;-77
2021/12/04 09:00:24;;;;;;;35.97;14.25;;;4.10;99.90;;;;;;4990595;28;20042;-77
2021/12/04 09:02:50;;;;;;;39.40;14.00;;;4.10;99.90;;;;;;4990580;28;20424;-76
2021/12/04 09:05:18;;;;;;;35.08;14.52;;;4.10;99.90;;;;;;4990389;28;20050;-77
2021/12/04 09:07:45;;;;;;;33.40;13.40;;;4.10;99.90;;;;;;4990783;28;20392;-76
2021/12/04 09:10:11;;;;;;;34.00;12.98;;;4.10;99.90;;;;;;4990097;28;20124;-77
2021/12/04 09:12:38;;;;;;;34.38;13.52;;;4.10;99.90;;;;;;4990167;28;20038;-76
2021/12/04 09:15:06;;;;;;;29.33;12.93;;;4.10;99.90;;;;;;4990177;28;20043;-77
2021/12/04 09:17:32;;;;;;;27.10;11.50;;;4.10;99.90;;;;;;4990259;28;20042;-76
2021/12/04 09:19:57;;;;;;;25.80;11.95;;;4.10;99.90;;;;;;4979763;28;20039;-77
2021/12/04 09:22:35;;;;;;;27.70;11.98;;;4.30;99.90;;;;;;4970460;28;20448;-77
2021/12/04 09:25:04;;;;;;;24.63;11.52;;;4.10;99.90;;;;;;4970592;28;20042;-77
2021/12/04 09:30:11;;;;;;;23.98;11.40;;;4.20;99.90;;;;;;4970754;28;20050;-76
2021/12/04 09:33:54;;;;;;;26.20;11.55;;;4.20;99.90;;;;;;4970722;28;20493;-77
2021/12/04 09:36:10;;;;;;;25.60;11.20;;;4.20;99.90;;;;;;4961749;28;20050;-76
2021/12/04 10:03:34;;;;;;;24.65;12.30;;;4.40;99.90;;;;;;4989643;28;20558;-76
2021/12/04 10:17:04;;;;;;;21.60;12.30;;;4.40;99.90;;;;;;4989881;28;20046;-77
2021/12/04 10:22:19;;;;;;;22.92;13.02;;;4.50;99.90;;;;;;4989324;28;20105;-77
2021/12/04 10:33:18;;;;;;;21.00;12.45;;;4.60;99.90;;;;;;4973942;28;20051;-77
2021/12/04 10:35:45;;;;;;;22.08;12.27;;;4.60;99.90;;;;;;4973680;28;20042;-77
2021/12/04 10:38:21;;;;;;;22.35;12.15;;;4.70;99.90;;;;;;4974035;28;20239;-77
2021/12/04 10:40:48;;;;;;;19.67;12.13;;;4.70;99.90;;;;;;4973565;28;20047;-77
2021/12/04 10:43:22;;;;;;;22.33;12.20;;;4.70;99.90;;;;;;4973235;28;20057;-77
2021/12/04 10:45:55;;;;;;;20.20;11.15;;;4.70;99.90;;;;;;4973391;28;20046;-76
2021/12/04 10:48:26;;;;;;;17.95;11.60;;;4.80;99.90;;;;;;4973350;28;20042;-77
2021/12/04 10:51:46;;;;;;;18.60;11.80;;;4.80;99.90;;;;;;4973414;28;20073;-77
2021/12/04 10:53:49;;;;;;;17.48;10.13;;;4.80;99.90;;;;;;4966097;28;20051;-76
2021/12/04 11:04:09;;;;;;;19.95;12.23;;;4.80;99.90;;;;;;4983971;28;20046;-77
2021/12/04 11:07:14;;;;;;;16.15;10.77;;;4.90;99.90;;;;;;4982132;28;20056;-77
2021/12/04 11:40:23;;;;;;;19.00;10.75;;;4.90;99.90;;;;;;4988938;28;20042;-77
2021/12/04 11:42:55;;;;;;;17.67;11.30;;;5.00;99.90;;;;;;4974849;28;20045;-77
2021/12/04 11:45:29;;;;;;;19.73;11.02;;;5.00;99.90;;;;;;4986951;28;20050;-77
2021/12/04 11:48:01;;;;;;;18.25;11.02;;;5.00;99.90;;;;;;4985052;28;20038;-77
2021/12/04 11:50:32;;;;;;;16.98;10.68;;;5.10;99.90;;;;;;4970543;28;20050;-77
2021/12/04 11:53:03;;;;;;;17.88;10.98;;;5.00;99.90;;;;;;4988273;28;20034;-77
2021/12/04 11:55:34;;;;;;;18.48;11.18;;;5.10;99.90;;;;;;4991547;28;20057;-77
2021/12/04 11:58:00;;;;;;;20.95;11.23;;;5.10;99.90;;;;;;4983427;28;20039;-77
2021/12/04 12:00:32;;;;;;;19.55;10.95;;;5.10;99.90;;;;;;4982279;28;20046;-77
2021/12/04 12:03:20;;;;;;;19.50;11.65;;;5.10;99.90;;;;;;4982310;28;20038;-77
2021/12/04 12:05:53;;;;;;;18.92;10.88;;;5.10;99.90;;;;;;4962746;28;20416;-77
2021/12/04 12:08:24;;;;;;;20.48;11.50;;;5.10;99.90;;;;;;4978794;28;20041;-77
2021/12/04 12:10:54;;;;;;;20.05;12.10;;;5.10;99.90;;;;;;4982238;28;20042;-76
2021/12/04 12:13:30;;;;;;;21.50;12.30;;;5.10;99.90;;;;;;4978552;28;20441;-77
2021/12/04 12:16:03;;;;;;;21.65;12.10;;;5.10;99.90;;;;;;4989828;28;20095;-77
2021/12/04 12:18:28;;;;;;;25.30;12.98;;;5.00;99.90;;;;;;4976893;28;20088;-77
2021/12/04 12:20:59;;;;;;;21.33;12.85;;;5.10;99.90;;;;;;4977695;28;20458;-77
2021/12/04 12:23:29;;;;;;;21.80;12.05;;;5.10;99.90;;;;;;4973518;28;20158;-77
2021/12/04 12:31:50;;;;;;;23.98;13.02;;;5.00;99.90;;;;;;4984133;28;20141;-77
2021/12/04 12:37:13;;;;;;;26.38;12.40;;;5.10;99.90;;;;;;4981752;28;20121;-77
2021/12/04 12:39:51;;;;;;;22.73;12.57;;;5.20;99.90;;;;;;4989245;28;20082;-77
2021/12/04 12:42:31;;;;;;;25.83;14.10;;;5.20;99.90;;;;;;4971471;28;20401;-78
2021/12/04 12:45:32;;;;;;;25.98;13.90;;;5.20;99.90;;;;;;4979865;28;20034;-77
2021/12/04 12:48:02;;;;;;;26.30;14.20;;;5.10;99.90;;;;;;4975077;28;20047;-77
2021/12/04 12:50:40;;;;;;;28.52;13.75;;;5.10;99.90;;;;;;4976141;28;20030;-78
2021/12/04 12:53:14;;;;;;;29.25;14.18;;;5.10;99.90;;;;;;4982992;28;20519;-77
2021/12/04 12:55:41;;;;;;;;;;;5.10;99.90;;;;;;4971624;28;20042;-77
2021/12/04 12:58:25;;;;;;;28.63;13.95;;;5.00;99.90;;;;;;4977505;28;19917;-78
2021/12/04 13:12:06;;;;;;;31.67;14.23;;;5.00;99.90;;;;;;4973378;28;20042;-77
2021/12/04 13:14:39;;;;;;;33.28;15.75;;;5.00;99.90;;;;;;4985218;28;20125;-78
2021/12/04 13:17:07;;;;;;;30.25;15.13;;;5.00;99.90;;;;;;4974702;28;20504;-78
2021/12/04 13:19:36;;;;;;;34.72;15.82;;;5.00;99.90;;;;;;4979414;28;20052;-77
2021/12/04 13:22:06;;;;;;;30.58;14.80;;;5.00;99.90;;;;;;4978757;28;20060;-77
2021/12/04 13:24:35;;;;;;;35.97;16.65;;;5.00;99.90;;;;;;4978224;28;20078;-77
2021/12/04 13:30:07;;;;;;;37.47;16.38;;;5.00;99.90;;;;;;4978274;28;20039;-77
2021/12/04 13:32:38;;;;;;;35.50;17.23;;;5.00;99.90;;;;;;4974150;28;20050;-77
2021/12/04 13:35:13;;;;;;;34.05;16.17;;;5.00;99.90;;;;;;4986728;28;20033;-77
2021/12/04 13:37:39;;;;;;;36.63;17.45;;;5.00;99.90;;;;;;4978777;28;20505;-77
2021/12/04 13:40:09;;;;;;;37.15;17.23;;;5.00;99.90;;;;;;4986261;28;20492;-77
2021/12/04 13:42:37;;;;;;;38.15;16.30;;;4.90;99.90;;;;;;4976660;28;20074;-77
2021/12/04 13:45:05;;;;;;;36.70;16.65;;;4.90;99.90;;;;;;4960372;28;20173;-77
2021/12/04 13:47:31;;;;;;;34.53;17.10;;;4.90;99.90;;;;;;4967773;28;20413;-77
2021/12/04 13:49:57;;;;;;;38.08;17.13;;;4.90;99.90;;;;;;4985965;28;20035;-77
2021/12/04 13:52:26;;;;;;;41.40;16.92;;;5.00;99.90;;;;;;4974055;28;20385;-77
2021/12/04 13:55:10;;;;;;;35.38;16.65;;;5.00;99.90;;;;;;4972915;28;20043;-77
2021/12/04 13:57:41;;;;;;;38.88;17.00;;;4.90;99.90;;;;;;4985536;28;20125;-77
2021/12/04 14:00:10;;;;;;;39.03;16.67;;;4.90;99.90;;;;;;4980052;28;20038;-77
2021/12/04 14:02:35;;;;;;;39.65;17.27;;;4.90;99.90;;;;;;4977809;28;20093;-77
2021/12/04 14:05:17;;;;;;;38.53;17.45;;;4.90;99.90;;;;;;4958381;28;20047;-77
2021/12/04 14:07:52;;;;;;;41.80;17.13;;;4.90;99.90;;;;;;4984971;28;20097;-77
2021/12/04 14:10:23;;;;;;;41.58;17.42;;;5.00;99.90;;;;;;4992714;28;20455;-78
2021/12/04 14:12:49;;;;;;;39.17;17.83;;;5.00;99.90;;;;;;4992701;28;20512;-77
2021/12/04 14:15:19;;;;;;;44.67;18.63;;;4.90;99.90;;;;;;4993536;28;20125;-76
2021/12/04 14:17:45;;;;;;;42.15;18.80;;;5.00;99.90;;;;;;4993460;28;20073;-76
2021/12/04 14:20:22;;;;;;;47.72;19.80;;;4.90;99.90;;;;;;4976925;28;20034;-77
2021/12/04 14:22:51;;;;;;;41.67;17.83;;;4.90;99.90;;;;;;4992935;28;20504;-77
2021/12/04 14:25:18;;;;;;;44.78;19.80;;;4.90;99.90;;;;;;4992562;28;20125;-76
2021/12/04 14:27:44;;;;;;;45.72;20.42;;;5.00;99.90;;;;;;4976854;28;20039;-77
2021/12/04 14:30:25;;;;;;;45.90;19.55;;;4.90;99.90;;;;;;4992707;28;20054;-77
2021/12/04 14:32:55;;;;;;;45.78;19.38;;;4.90;99.90;;;;;;4982904;28;20121;-77
2021/12/04 14:35:22;;;;;;;47.22;19.40;;;4.90;99.90;;;;;;4973187;28;20497;-77
2021/12/04 14:37:55;;;;;;;45.63;19.67;;;4.90;99.90;;;;;;4973795;28;20300;-77
2021/12/04 14:40:25;;;;;;;45.83;20.67;;;4.90;99.90;;;;;;4957551;28;20390;-77
2021/12/04 14:42:51;;;;;;;48.28;20.85;;;4.90;99.90;;;;;;4973224;28;20085;-77
2021/12/04 14:45:21;;;;;;;46.67;20.60;;;4.90;99.90;;;;;;4972819;28;20133;-77
2021/12/04 14:48:17;;;;;;;43.03;18.70;;;4.90;99.90;;;;;;4977373;28;20479;-77
2021/12/04 14:50:46;;;;;;;50.58;20.40;;;4.90;99.90;;;;;;4959766;28;20050;-77
2021/12/04 14:53:15;;;;;;;48.78;20.17;;;4.90;99.90;;;;;;4976300;28;20117;-77
2021/12/04 14:55:44;;;;;;;45.25;19.45;;;4.90;99.90;;;;;;4972713;28;20063;-76
2021/12/04 14:58:13;;;;;;;47.92;20.05;;;4.90;99.90;;;;;;4986000;28;20412;-77
2021/12/04 15:00:48;;;;;;;47.15;19.25;;;4.90;99.90;;;;;;4986452;28;20041;-77
2021/12/04 15:03:18;;;;;;;50.75;20.25;;;4.90;99.90;;;;;;4981732;28;20067;-76
2021/12/04 15:05:50;;;;;;;50.05;20.60;;;4.90;99.90;;;;;;4957584;28;20544;-76
2021/12/04 15:08:19;;;;;;;54.67;22.27;;;4.90;99.90;;;;;;4992541;28;20447;-77
2021/12/04 15:10:57;;;;;;;51.13;23.13;;;4.90;99.90;;;;;;4991516;28;20442;-77
2021/12/04 15:13:25;;;;;;;57.75;24.08;;;4.90;99.90;;;;;;4991057;28;20042;-77
2021/12/04 15:15:52;;;;;;;57.72;24.13;;;4.90;99.90;;;;;;4987470;28;20415;-77
2021/12/04 15:18:22;;;;;;;59.60;23.77;;;4.90;99.90;;;;;;4985260;28;20121;-77
2021/12/04 15:21:00;;;;;;;65.35;25.15;;;4.90;99.90;;;;;;4973744;28;20065;-77
2021/12/04 15:23:29;;;;;;;54.70;24.83;;;4.80;99.90;;;;;;4987194;28;20042;-77
2021/12/04 15:25:56;;;;;;;57.35;24.73;;;4.80;99.90;;;;;;4989568;28;20091;-76
2021/12/04 15:28:25;;;;;;;61.58;24.48;;;4.80;99.90;;;;;;4969655;28;20042;-77
2021/12/04 15:30:54;;;;;;;60.67;26.17;;;4.80;99.90;;;;;;4990523;28;20038;-77
2021/12/04 15:33:24;;;;;;;61.40;26.65;;;4.80;99.90;;;;;;4987161;28;20034;-77
2021/12/04 15:35:51;;;;;;;62.72;25.08;;;4.90;99.90;;;;;;4969604;28;20389;-77
2021/12/04 15:38:34;;;;;;;54.55;24.20;;;4.80;99.90;;;;;;4986027;28;20113;-77